createdAt,value
2018-09-05T00:01:11.468Z,31.90
2018-09-05T00:03:46.073Z,31.00
2018-09-05T00:06:20.748Z,29.97
2018-09-05T00:08:55.360Z,30.70
2018-09-05T00:11:29.911Z,30.53
2018-09-05T00:14:04.492Z,32.43
2018-09-05T00:16:38.956Z,32.13
2018-09-05T00:19:13.550Z,30.53
2018-09-05T00:21:48.386Z,29.40
2018-09-05T00:24:23.008Z,30.23
2018-09-05T00:26:58.029Z,30.43
2018-09-05T00:29:32.489Z,28.30
2018-09-05T00:32:07.272Z,28.83
2018-09-05T00:34:41.920Z,28.40
2018-09-05T00:37:16.560Z,28.87
2018-09-05T00:39:51.309Z,30.10
2018-09-05T00:42:25.990Z,30.27
2018-09-05T00:45:00.640Z,27.70
2018-09-05T00:47:35.292Z,28.63
2018-09-05T00:50:10.152Z,28.70
2018-09-05T00:52:44.928Z,30.33
2018-09-05T00:55:19.547Z,27.97
2018-09-05T00:57:54.224Z,28.90
2018-09-05T01:00:28.817Z,26.57
2018-09-05T01:03:03.389Z,27.20
2018-09-05T01:05:38.096Z,27.77
2018-09-05T01:08:12.643Z,28.63
2018-09-05T01:10:47.259Z,26.57
2018-09-05T01:13:21.911Z,26.73
2018-09-05T01:15:56.532Z,27.07
2018-09-05T01:18:31.073Z,24.77
2018-09-05T01:21:06.121Z,23.20
2018-09-05T01:23:40.562Z,24.90
2018-09-05T01:26:15.256Z,25.10
2018-09-05T01:28:49.892Z,23.27
2018-09-05T01:31:24.509Z,24.60
2018-09-05T01:33:59.573Z,25.33
2018-09-05T01:36:34.098Z,27.07
2018-09-05T01:39:08.724Z,25.00
2018-09-05T01:41:43.282Z,26.17
2018-09-05T01:44:17.817Z,23.97
2018-09-05T01:46:52.549Z,25.00
2018-09-05T01:49:26.992Z,25.70
2018-09-05T01:52:01.908Z,25.20
2018-09-05T01:54:36.429Z,26.23
2018-09-05T01:57:11.257Z,25.17
2018-09-05T01:59:45.816Z,26.07
2018-09-05T02:02:20.349Z,25.07
2018-09-05T02:04:55.988Z,25.30
2018-09-05T02:07:30.424Z,25.33
2018-09-05T02:10:05.368Z,21.20
2018-09-05T02:12:40.024Z,19.27
2018-09-05T02:15:14.573Z,19.67
2018-09-05T02:17:49.084Z,21.47
2018-09-05T02:20:24.139Z,18.80
2018-09-05T02:22:58.769Z,20.40
2018-09-05T02:25:33.356Z,21.13
2018-09-05T02:28:08.240Z,21.97
2018-09-05T02:30:42.981Z,20.30
2018-09-05T02:33:17.459Z,20.93
2018-09-05T02:35:52.130Z,20.90
2018-09-05T02:38:26.788Z,21.27
2018-09-05T02:41:01.389Z,21.07
2018-09-05T02:43:41.262Z,21.27
2018-09-05T02:46:15.902Z,21.43
2018-09-05T02:48:50.465Z,22.30
2018-09-05T02:51:25.256Z,21.67
2018-09-05T02:54:01.975Z,22.07
2018-09-05T02:56:36.873Z,21.90
2018-09-05T03:02:16.004Z,22.27
2018-09-05T03:07:54.243Z,21.57
2018-09-05T03:10:28.764Z,22.37
2018-09-05T03:13:03.337Z,21.33
2018-09-05T03:15:38.064Z,22.07
2018-09-05T03:18:12.876Z,21.80
2018-09-05T03:20:47.411Z,21.13
2018-09-05T03:23:22.061Z,22.80
2018-09-05T03:26:29.373Z,22.13
2018-09-05T03:29:03.871Z,21.67
2018-09-05T03:31:38.259Z,21.93
2018-09-05T03:34:21.304Z,21.30
2018-09-05T03:36:55.987Z,21.00
2018-09-05T03:39:30.806Z,21.57
2018-09-05T03:42:08.585Z,22.13
2018-09-05T03:44:42.976Z,22.33
2018-09-05T03:47:17.664Z,22.27
2018-09-05T03:49:52.148Z,22.23
2018-09-05T03:52:26.553Z,21.97
2018-09-05T03:55:00.995Z,21.47
2018-09-05T03:57:35.390Z,22.30
2018-09-05T04:00:09.923Z,21.37
2018-09-05T04:02:44.224Z,22.43
2018-09-05T04:05:18.556Z,21.43
2018-09-05T04:07:52.904Z,22.73
2018-09-05T04:10:27.291Z,19.90
2018-09-05T04:13:01.711Z,21.27
2018-09-05T04:15:36.181Z,21.60
2018-09-05T04:18:10.644Z,20.33
2018-09-05T04:20:44.900Z,19.70
2018-09-05T04:23:19.189Z,20.00
2018-09-05T04:25:53.616Z,19.00
2018-09-05T04:28:28.007Z,20.10
2018-09-05T04:31:02.428Z,19.73
2018-09-05T04:33:36.804Z,21.07
2018-09-05T04:36:13.259Z,21.00
2018-09-05T04:38:47.752Z,19.90
2018-09-05T04:41:22.164Z,20.60
2018-09-05T04:46:56.673Z,21.03
2018-09-05T04:49:30.888Z,20.23
2018-09-05T04:52:05.124Z,21.57
2018-09-05T04:54:39.545Z,20.67
2018-09-05T04:57:13.916Z,21.90
2018-09-05T04:59:57.844Z,21.33
2018-09-05T05:02:38.655Z,20.37
2018-09-05T05:05:12.896Z,21.17
2018-09-05T05:07:47.310Z,20.73
2018-09-05T05:10:21.803Z,20.33
2018-09-05T05:12:56.296Z,18.63
2018-09-05T05:15:30.715Z,19.57
2018-09-05T05:18:05.113Z,18.30
2018-09-05T05:20:39.472Z,18.03
2018-09-05T05:23:14.035Z,17.73
2018-09-05T05:25:48.268Z,17.43
2018-09-05T05:28:22.667Z,18.33
2018-09-05T05:30:57.085Z,18.03
2018-09-05T05:33:31.440Z,16.47
2018-09-05T05:36:06.090Z,17.00
2018-09-05T05:38:40.779Z,16.90
2018-09-05T05:41:15.356Z,15.90
2018-09-05T05:43:49.851Z,16.57
2018-09-05T05:46:24.075Z,14.30
2018-09-05T05:48:58.536Z,14.93
2018-09-05T05:51:32.940Z,13.70
2018-09-05T05:54:07.813Z,14.07
2018-09-05T05:56:42.048Z,13.93
2018-09-05T05:59:16.287Z,13.70
2018-09-05T06:01:50.599Z,13.60
2018-09-05T06:04:24.952Z,13.13
2018-09-05T06:06:59.419Z,12.93
2018-09-05T06:09:34.103Z,12.73
2018-09-05T06:12:08.507Z,11.83
2018-09-05T06:14:42.891Z,12.27
2018-09-05T06:17:17.334Z,12.40
2018-09-05T06:19:52.020Z,11.93
2018-09-05T06:22:26.656Z,11.57
2018-09-05T06:25:05.019Z,11.67
2018-09-05T06:27:46.956Z,11.33
2018-09-05T06:33:20.588Z,12.00
2018-09-05T06:35:54.931Z,11.10
2018-09-05T06:38:29.332Z,10.53
2018-09-05T06:41:03.648Z,9.63
2018-09-05T06:43:38.043Z,9.60
2018-09-05T06:46:12.439Z,9.87
2018-09-05T06:48:46.658Z,10.47
2018-09-05T06:51:21.044Z,9.97
2018-09-05T06:53:56.055Z,10.20
2018-09-05T06:56:30.547Z,9.13
2018-09-05T06:59:04.900Z,9.17
2018-09-05T07:01:39.283Z,9.40
2018-09-05T07:04:14.236Z,9.50
2018-09-05T07:06:48.429Z,9.23
2018-09-05T07:09:22.841Z,9.20
2018-09-05T07:11:57.235Z,9.30
2018-09-05T07:14:31.858Z,8.90
2018-09-05T07:17:06.627Z,9.47
2018-09-05T07:19:40.845Z,9.50
2018-09-05T07:22:15.258Z,9.60
2018-09-05T07:24:49.871Z,9.57
2018-09-05T07:27:24.320Z,9.40
2018-09-05T07:29:58.811Z,9.63
2018-09-05T07:32:33.095Z,9.67
2018-09-05T07:35:07.411Z,10.57
2018-09-05T07:37:49.073Z,10.23
2018-09-05T07:40:23.440Z,10.27
2018-09-05T07:42:58.057Z,9.87
2018-09-05T07:45:32.911Z,10.20
2018-09-05T07:48:07.218Z,10.70
2018-09-05T07:50:41.510Z,9.73
2018-09-05T07:53:15.780Z,9.40
2018-09-05T07:55:50.145Z,9.87
2018-09-05T07:58:25.168Z,10.30
2018-09-05T08:00:59.469Z,9.97
2018-09-05T08:03:34.036Z,9.80
2018-09-05T08:06:08.753Z,9.23
2018-09-05T08:08:43.144Z,9.70
2018-09-05T08:11:17.772Z,11.73
2018-09-05T08:13:52.195Z,10.70
2018-09-05T08:16:26.448Z,10.13
2018-09-05T08:19:00.695Z,10.60
2018-09-05T08:21:35.040Z,10.40
2018-09-05T08:24:09.457Z,11.17
2018-09-05T08:26:44.096Z,11.00
2018-09-05T08:29:18.617Z,11.27
2018-09-05T08:31:53.057Z,11.07
2018-09-05T08:34:41.308Z,11.43
2018-09-05T08:37:15.879Z,10.40
2018-09-05T08:39:50.102Z,11.27
2018-09-05T08:42:24.671Z,10.43
2018-09-05T08:44:59.260Z,10.50
2018-09-05T08:47:33.605Z,11.63
2018-09-05T08:50:08.140Z,10.70
2018-09-05T08:52:42.495Z,11.20
2018-09-05T08:55:17.345Z,10.77
2018-09-05T08:57:51.507Z,11.07
2018-09-05T09:00:25.753Z,11.93
2018-09-05T09:03:00.451Z,11.30
2018-09-05T09:05:34.828Z,10.93
2018-09-05T09:08:09.460Z,10.90
2018-09-05T09:10:43.820Z,10.60
2018-09-05T09:13:18.276Z,11.27
2018-09-05T09:15:52.513Z,12.63
2018-09-05T09:18:26.908Z,12.83
2018-09-05T09:21:01.211Z,12.73
2018-09-05T09:23:35.631Z,12.43
2018-09-05T09:26:10.404Z,13.27
2018-09-05T09:28:44.720Z,13.53
2018-09-05T09:31:18.939Z,12.33
2018-09-05T09:33:53.255Z,13.20
2018-09-05T09:36:27.789Z,13.93
2018-09-05T09:39:02.048Z,14.47
2018-09-05T09:41:36.552Z,13.63
2018-09-05T09:44:11.874Z,14.77
2018-09-05T09:46:52.823Z,15.20
2018-09-05T09:49:27.657Z,15.57
2018-09-05T09:52:15.157Z,14.63
2018-09-05T09:54:50.964Z,14.20
2018-09-05T09:57:33.183Z,15.03
2018-09-05T10:00:08.084Z,15.83
2018-09-05T10:03:06.572Z,15.67
2018-09-05T10:05:47.020Z,15.20
2018-09-05T10:08:26.820Z,15.23
2018-09-05T10:11:05.813Z,14.67
2018-09-05T10:13:45.625Z,14.97
2018-09-05T10:16:25.550Z,14.77
2018-09-05T10:19:00.174Z,15.50
2018-09-05T10:21:34.660Z,15.93
2018-09-05T10:24:08.979Z,15.17
2018-09-05T10:26:43.844Z,15.57
2018-09-05T10:29:18.900Z,15.40
2018-09-05T10:31:53.403Z,15.13
2018-09-05T10:34:27.653Z,14.73
2018-09-05T10:37:02.555Z,14.17
2018-09-05T10:39:36.812Z,14.50
2018-09-05T10:42:11.212Z,14.47
2018-09-05T10:44:46.071Z,14.07
2018-09-05T10:47:22.107Z,15.73
2018-09-05T10:52:55.438Z,13.77
2018-09-05T10:55:29.860Z,13.60
2018-09-05T10:58:04.559Z,13.30
2018-09-05T11:00:38.899Z,13.43
2018-09-05T11:03:13.307Z,13.10
2018-09-05T11:05:47.895Z,12.83
2018-09-05T11:08:22.287Z,12.67
2018-09-05T11:10:57.036Z,12.93
2018-09-05T11:13:31.379Z,13.07
2018-09-05T11:16:05.806Z,13.37
2018-09-05T11:18:40.147Z,12.70
2018-09-05T11:21:14.411Z,12.47
2018-09-05T11:23:48.815Z,13.00
2018-09-05T11:26:23.235Z,12.10
2018-09-05T11:28:58.320Z,11.47
2018-09-05T11:31:32.464Z,11.27
2018-09-05T11:34:07.108Z,10.93
2018-09-05T11:36:41.543Z,11.93
2018-09-05T11:39:15.910Z,11.17
2018-09-05T11:41:50.479Z,10.03
2018-09-05T11:44:24.856Z,9.27
2018-09-05T11:46:59.352Z,9.93
2018-09-05T11:49:35.516Z,10.20
2018-09-05T11:52:10.380Z,9.50
2018-09-05T11:54:44.775Z,9.23
2018-09-05T11:57:19.257Z,10.23
2018-09-05T11:59:53.915Z,9.83
2018-09-05T12:02:28.307Z,9.93
2018-09-05T12:05:02.579Z,9.17
2018-09-05T12:07:36.976Z,10.20
2018-09-05T12:10:11.276Z,9.60
2018-09-05T12:12:45.627Z,8.47
2018-09-05T12:15:19.921Z,9.10
2018-09-05T12:17:54.574Z,9.67
2018-09-05T12:20:28.759Z,9.00
2018-09-05T12:23:03.203Z,9.67
2018-09-05T12:25:37.891Z,9.70
2018-09-05T12:28:12.327Z,10.83
2018-09-05T12:30:46.727Z,9.10
2018-09-05T12:33:21.107Z,8.70
2018-09-05T12:35:55.460Z,9.00
2018-09-05T12:38:31.921Z,8.57
2018-09-05T12:41:07.558Z,9.33
2018-09-05T12:43:42.129Z,9.37
2018-09-05T12:46:17.160Z,8.93
2018-09-05T12:48:57.771Z,9.03
2018-09-05T12:51:32.409Z,9.83
2018-09-05T12:54:07.541Z,8.73
2018-09-05T12:59:49.968Z,8.27
2018-09-05T13:02:24.552Z,8.23
2018-09-05T13:04:59.251Z,7.73
2018-09-05T13:07:33.889Z,8.30
2018-09-05T13:10:08.904Z,8.57
2018-09-05T13:12:45.196Z,9.03
2018-09-05T13:15:28.555Z,8.60
2018-09-05T13:18:15.116Z,8.13
2018-09-05T13:20:49.565Z,7.93
2018-09-05T13:26:35.932Z,8.20
2018-09-05T13:29:10.892Z,8.27
2018-09-05T13:31:45.670Z,7.57
2018-09-05T13:34:20.245Z,8.23
2018-09-05T13:36:54.826Z,8.30
2018-09-05T13:39:29.439Z,7.97
2018-09-05T13:42:03.946Z,8.27
2018-09-05T13:44:38.641Z,8.87
2018-09-05T13:47:13.154Z,9.10
2018-09-05T13:49:47.592Z,8.80
2018-09-05T13:52:22.027Z,8.10
2018-09-05T13:54:56.472Z,8.10
2018-09-05T13:57:31.149Z,8.33
2018-09-05T14:00:05.680Z,8.77
2018-09-05T14:02:40.090Z,8.60
2018-09-05T14:05:15.112Z,8.83
2018-09-05T14:07:49.573Z,9.60
2018-09-05T14:10:24.328Z,9.50
2018-09-05T14:12:58.789Z,9.80
2018-09-05T14:15:33.337Z,9.97
2018-09-05T14:18:07.997Z,10.87
2018-09-05T14:20:42.646Z,10.80
2018-09-05T14:23:17.248Z,10.60
2018-09-05T14:25:51.912Z,10.33
2018-09-05T14:28:26.567Z,11.07
2018-09-05T14:31:01.108Z,10.97
2018-09-05T14:33:35.540Z,12.03
2018-09-05T14:36:10.001Z,11.50
2018-09-05T14:38:45.031Z,11.17
2018-09-05T14:41:19.464Z,10.73
2018-09-05T14:43:53.901Z,11.40
2018-09-05T14:46:28.241Z,10.77
2018-09-05T14:49:02.797Z,10.17
2018-09-05T14:51:37.253Z,9.90
2018-09-05T14:54:11.727Z,11.53
2018-09-05T14:56:46.384Z,10.37
2018-09-05T14:59:21.216Z,10.67
2018-09-05T15:01:55.581Z,10.67
2018-09-05T15:04:30.179Z,9.70
2018-09-05T15:07:04.598Z,11.07
2018-09-05T15:09:39.288Z,10.50
2018-09-05T15:12:13.836Z,10.43
2018-09-05T15:14:48.320Z,10.93
2018-09-05T15:17:22.765Z,11.37
2018-09-05T15:19:57.436Z,11.73
2018-09-05T15:22:31.957Z,10.93
2018-09-05T15:25:06.813Z,11.87
2018-09-05T15:27:41.589Z,10.63
2018-09-05T15:30:16.333Z,11.20
2018-09-05T15:32:50.791Z,10.70
2018-09-05T15:35:25.440Z,11.27
2018-09-05T15:38:00.009Z,11.07
2018-09-05T15:40:34.599Z,10.57
2018-09-05T15:43:08.996Z,10.57
2018-09-05T15:45:43.494Z,10.47
2018-09-05T15:48:17.947Z,10.10
2018-09-05T15:50:52.384Z,10.27
2018-09-05T15:53:27.228Z,10.77
2018-09-05T15:56:01.677Z,10.93
2018-09-05T15:58:36.593Z,10.67
2018-09-05T16:01:15.579Z,10.37
2018-09-05T16:03:54.273Z,9.97
2018-09-05T16:06:29.240Z,9.60
2018-09-05T16:09:04.249Z,10.03
2018-09-05T16:11:38.900Z,10.43
2018-09-05T16:14:14.256Z,10.27
2018-09-05T16:16:48.915Z,10.20
2018-09-05T16:19:23.541Z,10.00
2018-09-05T16:21:58.183Z,13.53
2018-09-05T16:24:32.730Z,11.03
2018-09-05T16:27:07.841Z,11.17
2018-09-05T16:29:42.237Z,10.50
2018-09-05T16:32:16.679Z,10.07
2018-09-05T16:34:51.029Z,10.47
2018-09-05T16:37:25.620Z,9.97
2018-09-05T16:40:00.266Z,10.17
2018-09-05T16:42:34.772Z,9.57
2018-09-05T16:45:09.508Z,9.33
2018-09-05T16:47:44.308Z,10.73
2018-09-05T16:50:18.964Z,10.73
2018-09-05T16:52:53.702Z,9.90
2018-09-05T16:55:28.241Z,10.20
2018-09-05T16:58:02.733Z,9.43
2018-09-05T17:00:37.985Z,10.20
2018-09-05T17:03:12.697Z,9.97
2018-09-05T17:05:47.268Z,10.40
2018-09-05T17:08:21.668Z,10.27
2018-09-05T17:10:56.327Z,9.80
2018-09-05T17:13:30.989Z,9.27
2018-09-05T17:16:06.528Z,9.10
2018-09-05T17:18:41.317Z,9.80
2018-09-05T17:21:16.104Z,9.70
2018-09-05T17:24:02.661Z,9.80
2018-09-05T17:26:37.649Z,8.63
2018-09-05T17:29:12.376Z,8.83
2018-09-05T17:31:47.001Z,9.23
2018-09-05T17:34:21.704Z,10.13
2018-09-05T17:36:56.317Z,8.97
2018-09-05T17:39:31.045Z,10.33
2018-09-05T17:42:05.776Z,9.27
2018-09-05T17:44:40.420Z,9.47
2018-09-05T17:47:15.097Z,10.43
2018-09-05T17:49:49.841Z,9.40
2018-09-05T17:52:24.344Z,10.23
2018-09-05T17:54:58.881Z,9.47
2018-09-05T17:57:33.348Z,8.83
2018-09-05T18:00:08.180Z,9.00
2018-09-05T18:02:42.721Z,10.00
2018-09-05T18:05:17.209Z,10.07
2018-09-05T18:07:51.828Z,9.27
2018-09-05T18:10:26.485Z,9.83
2018-09-05T18:13:01.297Z,9.67
2018-09-05T18:15:35.970Z,9.77
2018-09-05T18:18:10.392Z,9.33
2018-09-05T18:20:44.902Z,10.40
2018-09-05T18:23:19.381Z,9.40
2018-09-05T18:25:53.820Z,9.53
2018-09-05T18:28:28.446Z,10.17
2018-09-05T18:31:02.955Z,10.57
2018-09-05T18:33:37.717Z,10.17
2018-09-05T18:36:12.270Z,9.97
2018-09-05T18:38:46.909Z,10.13
2018-09-05T18:41:21.537Z,9.53
2018-09-05T18:43:56.076Z,10.17
2018-09-05T18:46:30.960Z,9.53
2018-09-05T18:49:05.546Z,8.67
2018-09-05T18:51:40.036Z,8.70
2018-09-05T18:54:14.507Z,7.87
2018-09-05T18:56:48.965Z,7.80
2018-09-05T18:59:23.442Z,7.97
2018-09-05T19:01:58.147Z,8.83
2018-09-05T19:04:32.676Z,7.77
2018-09-05T19:07:07.335Z,9.07
2018-09-05T19:09:41.985Z,8.67
2018-09-05T19:12:16.592Z,8.37
2018-09-05T19:14:51.038Z,8.13
2018-09-05T19:17:25.670Z,7.83
2018-09-05T19:20:00.252Z,6.83
2018-09-05T19:22:34.830Z,7.83
2018-09-05T19:25:09.501Z,7.33
2018-09-05T19:27:44.051Z,7.30
2018-09-05T19:30:19.145Z,6.70
2018-09-05T19:32:53.521Z,7.07
2018-09-05T19:35:28.250Z,7.60
2018-09-05T19:38:02.701Z,7.23
2018-09-05T19:40:37.456Z,6.60
2018-09-05T19:43:12.108Z,6.60
2018-09-05T19:45:46.705Z,7.13
2018-09-05T19:48:21.188Z,6.93
2018-09-05T19:50:55.801Z,7.33
2018-09-05T19:53:30.417Z,6.60
2018-09-05T19:56:04.849Z,7.53
2018-09-05T19:58:43.577Z,9.23
2018-09-05T20:01:34.029Z,6.97
2018-09-05T20:04:08.664Z,6.60
2018-09-05T20:06:43.772Z,7.33
2018-09-05T20:09:18.373Z,7.27
2018-09-05T20:11:52.920Z,7.57
2018-09-05T20:14:27.905Z,7.87
2018-09-05T20:17:02.477Z,8.20
2018-09-05T20:19:37.163Z,8.70
2018-09-05T20:22:12.260Z,8.67
2018-09-05T20:24:46.908Z,9.00
2018-09-05T20:27:21.498Z,8.57
2018-09-05T20:29:56.640Z,7.97
2018-09-05T20:32:31.013Z,8.63
2018-09-05T20:35:05.641Z,8.57
2018-09-05T20:37:40.169Z,7.70
2018-09-05T20:40:14.720Z,7.73
2018-09-05T20:42:49.312Z,7.50
2018-09-05T20:45:23.853Z,7.93
2018-09-05T20:47:58.745Z,7.40
2018-09-05T20:50:33.329Z,6.80
2018-09-05T20:53:08.271Z,6.80
2018-09-05T20:55:42.920Z,6.80
2018-09-05T20:58:18.239Z,6.57
2018-09-05T21:00:52.729Z,7.37
2018-09-05T21:03:27.361Z,6.63
2018-09-05T21:06:24.441Z,6.37
2018-09-05T21:09:00.496Z,6.20
2018-09-05T21:11:35.090Z,6.03
2018-09-05T21:14:09.853Z,6.87
2018-09-05T21:16:44.566Z,5.90
2018-09-05T21:19:19.108Z,6.10
2018-09-05T21:21:54.045Z,6.40
2018-09-05T21:24:28.549Z,6.00
2018-09-05T21:27:03.073Z,6.10
2018-09-05T21:29:38.035Z,6.27
2018-09-05T21:32:12.604Z,5.83
2018-09-05T21:34:47.188Z,6.13
2018-09-05T21:37:21.720Z,6.07
2018-09-05T21:39:56.320Z,6.40
2018-09-05T21:42:30.902Z,6.57
2018-09-05T21:45:05.953Z,5.90
2018-09-05T21:47:40.513Z,5.47
2018-09-05T21:50:15.129Z,6.33
2018-09-05T21:52:50.347Z,5.50
2018-09-05T21:55:24.869Z,6.70
2018-09-05T21:58:00.050Z,6.00
2018-09-05T22:00:34.645Z,6.60
2018-09-05T22:03:09.253Z,5.90
2018-09-05T22:05:43.818Z,6.37
2018-09-05T22:08:18.264Z,6.20
2018-09-05T22:10:52.936Z,6.23
2018-09-05T22:13:27.511Z,6.50
2018-09-05T22:16:02.161Z,6.13
2018-09-05T22:18:36.898Z,6.07
2018-09-05T22:21:11.437Z,5.87
2018-09-05T22:23:46.384Z,5.67
2018-09-05T22:26:21.242Z,6.30
2018-09-05T22:28:55.684Z,5.70
2018-09-05T22:31:30.253Z,5.90
2018-09-05T22:34:04.812Z,5.60
2018-09-05T22:36:39.397Z,5.80
2018-09-05T22:39:13.880Z,6.53
2018-09-05T22:41:48.293Z,6.60
2018-09-05T22:44:34.176Z,6.93
2018-09-05T22:47:19.976Z,7.00
2018-09-05T22:50:11.210Z,6.23
2018-09-05T22:53:04.790Z,10.57
2018-09-05T22:55:55.217Z,11.93
2018-09-05T22:58:55.669Z,13.70
2018-09-05T23:02:16.393Z,14.37
2018-09-05T23:05:59.689Z,16.90
2018-09-05T23:08:38.475Z,16.73
2018-09-05T23:11:24.374Z,19.67
2018-09-05T23:15:11.152Z,20.67
2018-09-05T23:20:14.777Z,21.20
2018-09-05T23:23:00.694Z,29.57
2018-09-05T23:25:35.141Z,28.03
2018-09-05T23:28:09.645Z,31.80
2018-09-05T23:30:44.297Z,33.00
2018-09-05T23:33:18.842Z,29.37
2018-09-05T23:35:53.738Z,29.63
2018-09-05T23:38:28.728Z,31.63
2018-09-05T23:41:03.321Z,31.20
2018-09-05T23:43:37.778Z,32.10
2018-09-05T23:46:12.439Z,30.43
2018-09-05T23:48:47.034Z,30.13
2018-09-05T23:51:21.520Z,30.43
2018-09-05T23:53:56.367Z,28.67
2018-09-05T23:56:30.950Z,28.30
2018-09-05T23:59:06.486Z,28.83
